sensor_id;sensor_type;location;lat;lon;timestamp;temperature;humidity
52895;DHT22;38759;53.396;6.722;2024-02-21T00:02:12;9.20;99.90
52895;DHT22;38759;53.396;6.722;2024-02-21T00:04:43;9.30;99.90
52895;DHT22;38759;53.396;6.722;2024-02-21T00:07:09;9.20;99.90
52895;DHT22;38759;53.396;6.722;2024-02-21T00:09:36;9.20;99.90
52895;DHT22;38759;53.396;6.722;2024-02-21T00:12:01;9.20;99.90
52895;DHT22;38759;53.396;6.722;2024-02-21T00:14:28;9.10;99.90
52895;DHT22;38759;53.396;6.722;2024-02-21T00:16:54;9.10;99.90
52895;DHT22;38759;53.396;6.722;2024-02-21T00:19:20;9.10;99.90
52895;DHT22;38759;53.396;6.722;2024-02-21T00:21:46;8.80;99.90
52895;DHT22;38759;53.396;6.722;2024-02-21T00:24:12;8.90;99.90
52895;DHT22;38759;53.396;6.722;2024-02-21T00:26:37;8.90;99.90
52895;DHT22;38759;53.396;6.722;2024-02-21T00:29:03;9.00;99.90
52895;DHT22;38759;53.396;6.722;2024-02-21T00:31:29;8.90;99.90
52895;DHT22;38759;53.396;6.722;2024-02-21T00:33:55;8.80;99.90
52895;DHT22;38759;53.396;6.722;2024-02-21T00:36:20;8.80;99.90
52895;DHT22;38759;53.396;6.722;2024-02-21T00:38:46;8.80;99.90
52895;DHT22;38759;53.396;6.722;2024-02-21T00:41:12;8.90;99.90
52895;DHT22;38759;53.396;6.722;2024-02-21T00:43:37;8.70;99.90
52895;DHT22;38759;53.396;6.722;2024-02-21T00:46:05;8.90;99.90
52895;DHT22;38759;53.396;6.722;2024-02-21T00:48:31;8.70;99.90
52895;DHT22;38759;53.396;6.722;2024-02-21T00:50:57;8.70;99.90
52895;DHT22;38759;53.396;6.722;2024-02-21T00:53:23;8.70;99.90
52895;DHT22;38759;53.396;6.722;2024-02-21T00:55:49;8.70;99.90
52895;DHT22;38759;53.396;6.722;2024-02-21T00:58:15;8.70;99.90
52895;DHT22;38759;53.396;6.722;2024-02-21T01:00:40;8.70;99.90
52895;DHT22;38759;53.396;6.722;2024-02-21T01:03:06;8.70;99.90
52895;DHT22;38759;53.396;6.722;2024-02-21T01:05:32;8.60;99.90
52895;DHT22;38759;53.396;6.722;2024-02-21T01:07:58;8.90;99.90
52895;DHT22;38759;53.396;6.722;2024-02-21T01:10:23;8.70;99.90
52895;DHT22;38759;53.396;6.722;2024-02-21T01:12:49;8.90;99.90
52895;DHT22;38759;53.396;6.722;2024-02-21T01:15:15;8.70;99.90
52895;DHT22;38759;53.396;6.722;2024-02-21T01:17:40;8.70;99.90
52895;DHT22;38759;53.396;6.722;2024-02-21T01:20:06;9.00;99.90
52895;DHT22;38759;53.396;6.722;2024-02-21T01:22:33;8.70;99.90
52895;DHT22;38759;53.396;6.722;2024-02-21T01:24:58;8.70;99.90
52895;DHT22;38759;53.396;6.722;2024-02-21T01:27:24;8.70;99.90
52895;DHT22;38759;53.396;6.722;2024-02-21T01:29:50;8.70;99.90
52895;DHT22;38759;53.396;6.722;2024-02-21T01:32:16;8.70;99.90
52895;DHT22;38759;53.396;6.722;2024-02-21T01:34:41;8.70;99.90
52895;DHT22;38759;53.396;6.722;2024-02-21T01:37:07;8.60;99.90
52895;DHT22;38759;53.396;6.722;2024-02-21T01:39:33;8.80;99.90
52895;DHT22;38759;53.396;6.722;2024-02-21T01:41:59;8.60;99.90
52895;DHT22;38759;53.396;6.722;2024-02-21T01:44:25;8.60;99.90
52895;DHT22;38759;53.396;6.722;2024-02-21T01:46:54;8.50;99.90
52895;DHT22;38759;53.396;6.722;2024-02-21T01:49:23;8.50;99.90
52895;DHT22;38759;53.396;6.722;2024-02-21T01:51:49;8.50;99.90
52895;DHT22;38759;53.396;6.722;2024-02-21T01:54:16;9.00;99.90
52895;DHT22;38759;53.396;6.722;2024-02-21T01:56:43;8.50;99.90
52895;DHT22;38759;53.396;6.722;2024-02-21T01:59:10;8.50;99.90
52895;DHT22;38759;53.396;6.722;2024-02-21T02:01:36;8.50;99.90
52895;DHT22;38759;53.396;6.722;2024-02-21T02:04:02;8.50;99.90
52895;DHT22;38759;53.396;6.722;2024-02-21T02:06:30;8.50;99.90
52895;DHT22;38759;53.396;6.722;2024-02-21T02:08:56;9.00;99.90
52895;DHT22;38759;53.396;6.722;2024-02-21T02:11:22;8.50;99.90
52895;DHT22;38759;53.396;6.722;2024-02-21T02:13:48;8.60;99.90
52895;DHT22;38759;53.396;6.722;2024-02-21T02:16:14;8.50;99.90
52895;DHT22;38759;53.396;6.722;2024-02-21T02:18:39;8.80;99.90
52895;DHT22;38759;53.396;6.722;2024-02-21T02:21:11;8.50;99.90
52895;DHT22;38759;53.396;6.722;2024-02-21T02:23:39;8.50;99.90
52895;DHT22;38759;53.396;6.722;2024-02-21T02:26:06;8.60;99.90
52895;DHT22;38759;53.396;6.722;2024-02-21T02:28:32;8.60;99.90
52895;DHT22;38759;53.396;6.722;2024-02-21T02:30:58;8.50;99.90
52895;DHT22;38759;53.396;6.722;2024-02-21T02:33:24;8.60;99.90
52895;DHT22;38759;53.396;6.722;2024-02-21T02:35:49;8.90;99.90
52895;DHT22;38759;53.396;6.722;2024-02-21T02:38:16;8.50;99.90
52895;DHT22;38759;53.396;6.722;2024-02-21T02:40:42;8.60;99.90
52895;DHT22;38759;53.396;6.722;2024-02-21T02:43:08;8.50;99.90
52895;DHT22;38759;53.396;6.722;2024-02-21T02:45:34;8.50;99.90
52895;DHT22;38759;53.396;6.722;2024-02-21T02:48:00;8.50;99.90
52895;DHT22;38759;53.396;6.722;2024-02-21T02:50:27;8.50;99.90
52895;DHT22;38759;53.396;6.722;2024-02-21T02:52:53;9.10;99.90
52895;DHT22;38759;53.396;6.722;2024-02-21T02:55:19;8.80;99.90
52895;DHT22;38759;53.396;6.722;2024-02-21T02:57:45;8.50;99.90
52895;DHT22;38759;53.396;6.722;2024-02-21T03:00:12;8.50;99.90
52895;DHT22;38759;53.396;6.722;2024-02-21T03:02:39;8.50;99.90
52895;DHT22;38759;53.396;6.722;2024-02-21T03:05:12;8.60;99.90
52895;DHT22;38759;53.396;6.722;2024-02-21T03:07:39;8.60;99.90
52895;DHT22;38759;53.396;6.722;2024-02-21T03:10:05;9.00;99.90
52895;DHT22;38759;53.396;6.722;2024-02-21T03:12:30;8.40;99.90
52895;DHT22;38759;53.396;6.722;2024-02-21T03:14:56;8.60;99.90
52895;DHT22;38759;53.396;6.722;2024-02-21T03:17:22;8.50;99.90
52895;DHT22;38759;53.396;6.722;2024-02-21T03:19:48;8.40;99.90
52895;DHT22;38759;53.396;6.722;2024-02-21T03:22:15;8.40;99.90
52895;DHT22;38759;53.396;6.722;2024-02-21T03:24:42;8.50;99.90
52895;DHT22;38759;53.396;6.722;2024-02-21T03:27:07;8.50;99.90
52895;DHT22;38759;53.396;6.722;2024-02-21T03:29:36;8.50;99.90
52895;DHT22;38759;53.396;6.722;2024-02-21T03:32:02;8.50;99.90
52895;DHT22;38759;53.396;6.722;2024-02-21T03:34:27;8.50;99.90
52895;DHT22;38759;53.396;6.722;2024-02-21T03:36:53;8.70;99.90
52895;DHT22;38759;53.396;6.722;2024-02-21T03:39:19;8.50;99.90
52895;DHT22;38759;53.396;6.722;2024-02-21T03:41:45;8.50;99.90
52895;DHT22;38759;53.396;6.722;2024-02-21T03:44:11;8.70;99.90
52895;DHT22;38759;53.396;6.722;2024-02-21T03:46:36;8.50;99.90
52895;DHT22;38759;53.396;6.722;2024-02-21T03:49:02;8.70;99.90
52895;DHT22;38759;53.396;6.722;2024-02-21T03:51:27;8.60;99.90
52895;DHT22;38759;53.396;6.722;2024-02-21T03:53:53;8.40;99.90
52895;DHT22;38759;53.396;6.722;2024-02-21T03:56:19;8.50;99.90
52895;DHT22;38759;53.396;6.722;2024-02-21T03:58:45;8.50;99.90
52895;DHT22;38759;53.396;6.722;2024-02-21T04:01:10;8.50;99.90
52895;DHT22;38759;53.396;6.722;2024-02-21T04:03:36;8.50;99.90
52895;DHT22;38759;53.396;6.722;2024-02-21T04:06:02;8.90;99.90
52895;DHT22;38759;53.396;6.722;2024-02-21T04:08:28;8.50;99.90
52895;DHT22;38759;53.396;6.722;2024-02-21T04:10:54;8.60;99.90
52895;DHT22;38759;53.396;6.722;2024-02-21T04:13:19;8.50;99.90
52895;DHT22;38759;53.396;6.722;2024-02-21T04:15:48;8.50;99.90
52895;DHT22;38759;53.396;6.722;2024-02-21T04:18:14;8.50;99.90
52895;DHT22;38759;53.396;6.722;2024-02-21T04:20:40;9.10;99.90
52895;DHT22;38759;53.396;6.722;2024-02-21T04:23:06;8.50;99.90
52895;DHT22;38759;53.396;6.722;2024-02-21T04:25:32;8.50;99.90
52895;DHT22;38759;53.396;6.722;2024-02-21T04:27:57;8.70;99.90
52895;DHT22;38759;53.396;6.722;2024-02-21T04:30:23;8.50;99.90
52895;DHT22;38759;53.396;6.722;2024-02-21T04:32:48;8.50;99.90
52895;DHT22;38759;53.396;6.722;2024-02-21T04:35:14;8.50;99.90
52895;DHT22;38759;53.396;6.722;2024-02-21T04:37:40;8.50;99.90
52895;DHT22;38759;53.396;6.722;2024-02-21T04:40:06;8.50;99.90
52895;DHT22;38759;53.396;6.722;2024-02-21T04:42:32;8.50;99.90
52895;DHT22;38759;53.396;6.722;2024-02-21T04:44:58;8.50;99.90
52895;DHT22;38759;53.396;6.722;2024-02-21T04:47:23;8.50;99.90
52895;DHT22;38759;53.396;6.722;2024-02-21T04:49:50;9.10;99.90
52895;DHT22;38759;53.396;6.722;2024-02-21T04:52:16;8.50;99.90
52895;DHT22;38759;53.396;6.722;2024-02-21T04:54:42;8.70;99.90
52895;DHT22;38759;53.396;6.722;2024-02-21T04:57:07;8.50;99.90
52895;DHT22;38759;53.396;6.722;2024-02-21T04:59:35;8.70;99.90
52895;DHT22;38759;53.396;6.722;2024-02-21T05:02:02;8.50;99.90
52895;DHT22;38759;53.396;6.722;2024-02-21T05:04:27;8.50;99.90
52895;DHT22;38759;53.396;6.722;2024-02-21T05:06:53;8.40;99.90
52895;DHT22;38759;53.396;6.722;2024-02-21T05:09:20;8.40;99.90
52895;DHT22;38759;53.396;6.722;2024-02-21T05:11:46;9.00;99.90
52895;DHT22;38759;53.396;6.722;2024-02-21T05:14:12;8.50;99.90
52895;DHT22;38759;53.396;6.722;2024-02-21T05:16:40;8.40;99.90
52895;DHT22;38759;53.396;6.722;2024-02-21T05:19:07;8.40;99.90
52895;DHT22;38759;53.396;6.722;2024-02-21T05:21:33;8.90;99.90
52895;DHT22;38759;53.396;6.722;2024-02-21T05:23:59;8.90;99.90
52895;DHT22;38759;53.396;6.722;2024-02-21T05:26:26;8.70;99.90
52895;DHT22;38759;53.396;6.722;2024-02-21T05:28:52;8.50;99.90
52895;DHT22;38759;53.396;6.722;2024-02-21T05:31:18;8.40;99.90
52895;DHT22;38759;53.396;6.722;2024-02-21T05:33:45;8.40;99.90
52895;DHT22;38759;53.396;6.722;2024-02-21T05:36:11;8.50;99.90
52895;DHT22;38759;53.396;6.722;2024-02-21T05:38:37;8.30;99.90
52895;DHT22;38759;53.396;6.722;2024-02-21T05:41:03;8.40;99.90
52895;DHT22;38759;53.396;6.722;2024-02-21T05:43:29;8.40;99.90
52895;DHT22;38759;53.396;6.722;2024-02-21T05:45:58;8.30;99.90
52895;DHT22;38759;53.396;6.722;2024-02-21T05:48:24;8.40;99.90
52895;DHT22;38759;53.396;6.722;2024-02-21T05:50:50;8.40;99.90
52895;DHT22;38759;53.396;6.722;2024-02-21T05:53:16;8.30;99.90
52895;DHT22;38759;53.396;6.722;2024-02-21T05:55:42;8.50;99.90
52895;DHT22;38759;53.396;6.722;2024-02-21T05:58:08;8.40;99.90
52895;DHT22;38759;53.396;6.722;2024-02-21T06:00:37;8.30;99.90
52895;DHT22;38759;53.396;6.722;2024-02-21T06:03:03;8.30;99.90
52895;DHT22;38759;53.396;6.722;2024-02-21T06:05:29;8.30;99.90
52895;DHT22;38759;53.396;6.722;2024-02-21T06:07:54;8.40;99.90
52895;DHT22;38759;53.396;6.722;2024-02-21T06:10:20;8.30;99.90
52895;DHT22;38759;53.396;6.722;2024-02-21T06:12:46;8.30;99.90
52895;DHT22;38759;53.396;6.722;2024-02-21T06:15:11;8.50;99.90
52895;DHT22;38759;53.396;6.722;2024-02-21T06:17:37;8.30;99.90
52895;DHT22;38759;53.396;6.722;2024-02-21T06:20:03;8.30;99.90
52895;DHT22;38759;53.396;6.722;2024-02-21T06:22:30;8.30;99.90
52895;DHT22;38759;53.396;6.722;2024-02-21T06:24:56;8.30;99.90
52895;DHT22;38759;53.396;6.722;2024-02-21T06:27:21;8.30;99.90
52895;DHT22;38759;53.396;6.722;2024-02-21T06:29:47;8.30;99.90
52895;DHT22;38759;53.396;6.722;2024-02-21T06:32:13;8.30;99.90
52895;DHT22;38759;53.396;6.722;2024-02-21T06:34:38;8.30;99.90
52895;DHT22;38759;53.396;6.722;2024-02-21T06:37:04;8.40;99.90
52895;DHT22;38759;53.396;6.722;2024-02-21T06:39:30;8.40;99.90
52895;DHT22;38759;53.396;6.722;2024-02-21T06:41:55;8.30;99.90
52895;DHT22;38759;53.396;6.722;2024-02-21T06:44:22;8.40;99.90
52895;DHT22;38759;53.396;6.722;2024-02-21T06:46:47;8.30;99.90
52895;DHT22;38759;53.396;6.722;2024-02-21T06:49:13;8.40;99.90
52895;DHT22;38759;53.396;6.722;2024-02-21T06:51:44;8.30;99.90
52895;DHT22;38759;53.396;6.722;2024-02-21T06:54:10;8.30;99.90
52895;DHT22;38759;53.396;6.722;2024-02-21T06:56:36;8.30;99.90
52895;DHT22;38759;53.396;6.722;2024-02-21T06:59:03;8.30;99.90
52895;DHT22;38759;53.396;6.722;2024-02-21T07:01:32;8.50;99.90
52895;DHT22;38759;53.396;6.722;2024-02-21T07:03:57;8.30;99.90
52895;DHT22;38759;53.396;6.722;2024-02-21T07:06:23;8.40;99.90
52895;DHT22;38759;53.396;6.722;2024-02-21T07:08:49;8.40;99.90
52895;DHT22;38759;53.396;6.722;2024-02-21T07:11:15;8.30;99.90
52895;DHT22;38759;53.396;6.722;2024-02-21T07:13:41;8.30;99.90
52895;DHT22;38759;53.396;6.722;2024-02-21T07:16:07;8.40;99.90
52895;DHT22;38759;53.396;6.722;2024-02-21T07:18:33;8.50;99.90
52895;DHT22;38759;53.396;6.722;2024-02-21T07:20:58;8.30;99.90
52895;DHT22;38759;53.396;6.722;2024-02-21T07:23:24;8.30;99.90
52895;DHT22;38759;53.396;6.722;2024-02-21T07:25:51;8.40;99.90
52895;DHT22;38759;53.396;6.722;2024-02-21T07:28:16;8.50;99.90
52895;DHT22;38759;53.396;6.722;2024-02-21T07:30:43;8.70;99.90
52895;DHT22;38759;53.396;6.722;2024-02-21T07:33:08;8.30;99.90
52895;DHT22;38759;53.396;6.722;2024-02-21T07:35:35;8.30;99.90
52895;DHT22;38759;53.396;6.722;2024-02-21T07:38:04;8.40;99.90
52895;DHT22;38759;53.396;6.722;2024-02-21T07:40:30;8.50;99.90
52895;DHT22;38759;53.396;6.722;2024-02-21T07:42:56;8.30;99.90
52895;DHT22;38759;53.396;6.722;2024-02-21T07:45:21;8.30;99.90
52895;DHT22;38759;53.396;6.722;2024-02-21T07:47:49;8.30;99.90
52895;DHT22;38759;53.396;6.722;2024-02-21T07:50:15;8.30;99.90
52895;DHT22;38759;53.396;6.722;2024-02-21T07:52:41;8.30;99.90
52895;DHT22;38759;53.396;6.722;2024-02-21T07:55:07;8.40;99.90
52895;DHT22;38759;53.396;6.722;2024-02-21T07:57:33;8.30;99.90
52895;DHT22;38759;53.396;6.722;2024-02-21T07:59:59;8.30;99.90
52895;DHT22;38759;53.396;6.722;2024-02-21T08:02:24;8.40;99.90
52895;DHT22;38759;53.396;6.722;2024-02-21T08:04:50;8.40;99.90
52895;DHT22;38759;53.396;6.722;2024-02-21T08:07:16;8.40;99.90
52895;DHT22;38759;53.396;6.722;2024-02-21T08:09:41;8.40;99.90
52895;DHT22;38759;53.396;6.722;2024-02-21T08:12:07;8.40;99.90
52895;DHT22;38759;53.396;6.722;2024-02-21T08:14:33;8.30;99.90
52895;DHT22;38759;53.396;6.722;2024-02-21T08:16:58;8.40;99.90
52895;DHT22;38759;53.396;6.722;2024-02-21T08:19:25;8.30;99.90
52895;DHT22;38759;53.396;6.722;2024-02-21T08:21:50;8.60;99.90
52895;DHT22;38759;53.396;6.722;2024-02-21T08:24:16;8.40;99.90
52895;DHT22;38759;53.396;6.722;2024-02-21T08:26:43;8.40;99.90
52895;DHT22;38759;53.396;6.722;2024-02-21T08:29:10;8.40;99.90
52895;DHT22;38759;53.396;6.722;2024-02-21T08:31:37;8.40;99.90
52895;DHT22;38759;53.396;6.722;2024-02-21T08:34:03;8.60;99.90
52895;DHT22;38759;53.396;6.722;2024-02-21T08:36:33;8.50;99.90
52895;DHT22;38759;53.396;6.722;2024-02-21T08:38:59;8.60;99.90
52895;DHT22;38759;53.396;6.722;2024-02-21T08:41:25;8.50;99.90
52895;DHT22;38759;53.396;6.722;2024-02-21T08:43:52;8.50;99.90
52895;DHT22;38759;53.396;6.722;2024-02-21T08:46:20;8.50;99.90
52895;DHT22;38759;53.396;6.722;2024-02-21T08:48:46;8.80;99.90
52895;DHT22;38759;53.396;6.722;2024-02-21T08:51:12;8.50;99.90
52895;DHT22;38759;53.396;6.722;2024-02-21T08:53:38;8.50;99.90
52895;DHT22;38759;53.396;6.722;2024-02-21T08:56:04;8.50;99.90
52895;DHT22;38759;53.396;6.722;2024-02-21T08:58:30;8.50;99.90
52895;DHT22;38759;53.396;6.722;2024-02-21T09:00:56;8.50;99.90
52895;DHT22;38759;53.396;6.722;2024-02-21T09:03:22;8.60;99.90
52895;DHT22;38759;53.396;6.722;2024-02-21T09:05:48;8.50;99.90
52895;DHT22;38759;53.396;6.722;2024-02-21T09:08:14;8.50;99.90
52895;DHT22;38759;53.396;6.722;2024-02-21T09:10:40;8.60;99.90
52895;DHT22;38759;53.396;6.722;2024-02-21T09:13:05;8.60;99.90
52895;DHT22;38759;53.396;6.722;2024-02-21T09:15:33;8.50;99.90
52895;DHT22;38759;53.396;6.722;2024-02-21T09:17:58;8.50;99.90
52895;DHT22;38759;53.396;6.722;2024-02-21T09:20:24;8.50;99.90
52895;DHT22;38759;53.396;6.722;2024-02-21T09:22:50;8.50;99.90
52895;DHT22;38759;53.396;6.722;2024-02-21T09:25:15;8.50;99.90
52895;DHT22;38759;53.396;6.722;2024-02-21T09:27:43;8.60;99.90
52895;DHT22;38759;53.396;6.722;2024-02-21T09:30:09;8.60;99.90
52895;DHT22;38759;53.396;6.722;2024-02-21T09:32:35;8.60;99.90
52895;DHT22;38759;53.396;6.722;2024-02-21T09:35:01;8.60;99.90
52895;DHT22;38759;53.396;6.722;2024-02-21T09:37:27;8.60;99.90
52895;DHT22;38759;53.396;6.722;2024-02-21T09:39:53;8.60;99.90
52895;DHT22;38759;53.396;6.722;2024-02-21T09:42:21;8.60;99.90
52895;DHT22;38759;53.396;6.722;2024-02-21T09:44:47;8.60;99.90
52895;DHT22;38759;53.396;6.722;2024-02-21T09:47:28;8.70;99.90
52895;DHT22;38759;53.396;6.722;2024-02-21T09:49:58;8.70;99.90
52895;DHT22;38759;53.396;6.722;2024-02-21T09:52:26;8.60;99.90
52895;DHT22;38759;53.396;6.722;2024-02-21T09:54:53;8.70;99.90
52895;DHT22;38759;53.396;6.722;2024-02-21T09:57:20;8.60;99.90
52895;DHT22;38759;53.396;6.722;2024-02-21T09:59:47;8.60;99.90
52895;DHT22;38759;53.396;6.722;2024-02-21T10:02:13;8.70;99.90
52895;DHT22;38759;53.396;6.722;2024-02-21T10:04:40;8.60;99.90
52895;DHT22;38759;53.396;6.722;2024-02-21T10:07:06;8.60;99.90
52895;DHT22;38759;53.396;6.722;2024-02-21T10:09:32;8.70;99.90
52895;DHT22;38759;53.396;6.722;2024-02-21T10:12:09;8.70;99.90
52895;DHT22;38759;53.396;6.722;2024-02-21T10:14:36;8.70;99.90
52895;DHT22;38759;53.396;6.722;2024-02-21T10:17:01;8.70;99.90
52895;DHT22;38759;53.396;6.722;2024-02-21T10:19:28;8.90;99.90
52895;DHT22;38759;53.396;6.722;2024-02-21T10:22:05;8.80;99.90
52895;DHT22;38759;53.396;6.722;2024-02-21T10:24:31;8.70;99.90
52895;DHT22;38759;53.396;6.722;2024-02-21T10:27:05;8.70;99.90
52895;DHT22;38759;53.396;6.722;2024-02-21T10:29:37;8.70;99.90
52895;DHT22;38759;53.396;6.722;2024-02-21T10:32:12;8.70;99.90
52895;DHT22;38759;53.396;6.722;2024-02-21T10:34:40;8.70;99.90
52895;DHT22;38759;53.396;6.722;2024-02-21T10:37:07;8.70;99.90
52895;DHT22;38759;53.396;6.722;2024-02-21T10:39:34;8.70;99.90
52895;DHT22;38759;53.396;6.722;2024-02-21T10:42:01;8.80;99.90
52895;DHT22;38759;53.396;6.722;2024-02-21T10:44:32;8.80;99.90
52895;DHT22;38759;53.396;6.722;2024-02-21T10:46:58;8.80;99.90
52895;DHT22;38759;53.396;6.722;2024-02-21T10:49:26;8.80;99.90
52895;DHT22;38759;53.396;6.722;2024-02-21T10:52:12;8.80;99.90
52895;DHT22;38759;53.396;6.722;2024-02-21T10:54:53;8.80;99.90
52895;DHT22;38759;53.396;6.722;2024-02-21T10:57:21;8.80;99.90
52895;DHT22;38759;53.396;6.722;2024-02-21T10:59:48;8.80;99.90
52895;DHT22;38759;53.396;6.722;2024-02-21T11:02:15;8.90;99.90
52895;DHT22;38759;53.396;6.722;2024-02-21T11:04:41;8.90;99.90
52895;DHT22;38759;53.396;6.722;2024-02-21T11:07:07;9.10;99.90
52895;DHT22;38759;53.396;6.722;2024-02-21T11:09:34;8.90;99.90
52895;DHT22;38759;53.396;6.722;2024-02-21T11:12:06;8.90;99.90
52895;DHT22;38759;53.396;6.722;2024-02-21T11:14:33;8.80;99.90
52895;DHT22;38759;53.396;6.722;2024-02-21T11:17:01;8.90;99.90
52895;DHT22;38759;53.396;6.722;2024-02-21T11:19:29;8.90;99.90
52895;DHT22;38759;53.396;6.722;2024-02-21T11:21:57;8.90;99.90
52895;DHT22;38759;53.396;6.722;2024-02-21T11:24:30;8.90;99.90
52895;DHT22;38759;53.396;6.722;2024-02-21T11:27:07;9.00;99.90
52895;DHT22;38759;53.396;6.722;2024-02-21T11:29:40;9.00;99.90
52895;DHT22;38759;53.396;6.722;2024-02-21T11:32:09;9.10;99.90
52895;DHT22;38759;53.396;6.722;2024-02-21T11:34:35;9.20;99.90
52895;DHT22;38759;53.396;6.722;2024-02-21T11:37:01;9.20;99.90
52895;DHT22;38759;53.396;6.722;2024-02-21T11:39:27;9.30;99.90
52895;DHT22;38759;53.396;6.722;2024-02-21T11:42:04;9.20;99.90
52895;DHT22;38759;53.396;6.722;2024-02-21T11:44:30;9.30;99.90
52895;DHT22;38759;53.396;6.722;2024-02-21T11:46:56;9.20;99.90
52895;DHT22;38759;53.396;6.722;2024-02-21T11:49:25;9.50;99.90
52895;DHT22;38759;53.396;6.722;2024-02-21T11:52:00;9.40;99.90
52895;DHT22;38759;53.396;6.722;2024-02-21T11:54:30;9.40;99.90
52895;DHT22;38759;53.396;6.722;2024-02-21T11:56:56;9.30;99.90
52895;DHT22;38759;53.396;6.722;2024-02-21T11:59:22;9.30;99.90
52895;DHT22;38759;53.396;6.722;2024-02-21T12:01:48;9.30;99.90
52895;DHT22;38759;53.396;6.722;2024-02-21T12:04:15;9.30;99.90
52895;DHT22;38759;53.396;6.722;2024-02-21T12:06:44;9.20;99.90
52895;DHT22;38759;53.396;6.722;2024-02-21T12:09:14;9.30;99.90
52895;DHT22;38759;53.396;6.722;2024-02-21T12:11:40;9.20;99.90
52895;DHT22;38759;53.396;6.722;2024-02-21T12:14:06;9.30;99.90
52895;DHT22;38759;53.396;6.722;2024-02-21T12:16:32;9.30;99.90
52895;DHT22;38759;53.396;6.722;2024-02-21T12:18:59;9.30;99.90
52895;DHT22;38759;53.396;6.722;2024-02-21T12:21:26;9.20;99.90
52895;DHT22;38759;53.396;6.722;2024-02-21T12:23:56;9.30;99.90
52895;DHT22;38759;53.396;6.722;2024-02-21T12:26:22;9.20;99.90
52895;DHT22;38759;53.396;6.722;2024-02-21T12:28:48;9.20;99.90
52895;DHT22;38759;53.396;6.722;2024-02-21T12:31:14;9.20;99.90
52895;DHT22;38759;53.396;6.722;2024-02-21T12:33:42;9.20;99.90
52895;DHT22;38759;53.396;6.722;2024-02-21T12:36:07;9.20;99.90
52895;DHT22;38759;53.396;6.722;2024-02-21T12:38:35;9.30;99.90
52895;DHT22;38759;53.396;6.722;2024-02-21T12:41:01;9.20;99.90
52895;DHT22;38759;53.396;6.722;2024-02-21T12:43:26;9.20;99.90
52895;DHT22;38759;53.396;6.722;2024-02-21T12:45:52;9.20;99.90
52895;DHT22;38759;53.396;6.722;2024-02-21T12:48:18;9.20;99.90
52895;DHT22;38759;53.396;6.722;2024-02-21T12:50:50;9.20;99.90
52895;DHT22;38759;53.396;6.722;2024-02-21T12:53:19;9.20;99.90
52895;DHT22;38759;53.396;6.722;2024-02-21T12:55:50;9.30;99.90
52895;DHT22;38759;53.396;6.722;2024-02-21T12:58:16;9.20;99.90
52895;DHT22;38759;53.396;6.722;2024-02-21T13:00:43;9.20;99.90
52895;DHT22;38759;53.396;6.722;2024-02-21T13:03:09;9.30;99.90
52895;DHT22;38759;53.396;6.722;2024-02-21T13:05:36;9.50;99.90
52895;DHT22;38759;53.396;6.722;2024-02-21T13:08:01;9.30;99.90
52895;DHT22;38759;53.396;6.722;2024-02-21T13:10:28;9.20;99.90
52895;DHT22;38759;53.396;6.722;2024-02-21T13:12:53;9.50;99.90
52895;DHT22;38759;53.396;6.722;2024-02-21T13:15:20;9.70;99.90
52895;DHT22;38759;53.396;6.722;2024-02-21T13:17:45;9.30;99.90
52895;DHT22;38759;53.396;6.722;2024-02-21T13:20:11;9.30;99.90
52895;DHT22;38759;53.396;6.722;2024-02-21T13:22:37;9.20;99.90
52895;DHT22;38759;53.396;6.722;2024-02-21T13:25:04;9.30;99.90
52895;DHT22;38759;53.396;6.722;2024-02-21T13:27:30;9.20;99.90
52895;DHT22;38759;53.396;6.722;2024-02-21T13:29:56;9.30;99.90
52895;DHT22;38759;53.396;6.722;2024-02-21T13:32:22;9.30;99.90
52895;DHT22;38759;53.396;6.722;2024-02-21T13:34:48;9.20;99.90
52895;DHT22;38759;53.396;6.722;2024-02-21T13:37:13;9.30;99.90
52895;DHT22;38759;53.396;6.722;2024-02-21T13:39:40;9.50;99.90
52895;DHT22;38759;53.396;6.722;2024-02-21T13:42:06;9.40;99.90
52895;DHT22;38759;53.396;6.722;2024-02-21T13:44:32;9.40;99.90
52895;DHT22;38759;53.396;6.722;2024-02-21T13:46:58;9.40;99.90
52895;DHT22;38759;53.396;6.722;2024-02-21T13:49:23;9.60;99.90
52895;DHT22;38759;53.396;6.722;2024-02-21T13:51:49;9.50;99.90
52895;DHT22;38759;53.396;6.722;2024-02-21T13:54:14;9.50;99.90
52895;DHT22;38759;53.396;6.722;2024-02-21T13:56:42;9.50;99.90
52895;DHT22;38759;53.396;6.722;2024-02-21T13:59:08;9.50;99.90
52895;DHT22;38759;53.396;6.722;2024-02-21T14:01:34;9.50;99.90
52895;DHT22;38759;53.396;6.722;2024-02-21T14:04:01;9.40;99.90
52895;DHT22;38759;53.396;6.722;2024-02-21T14:06:27;9.50;99.90
52895;DHT22;38759;53.396;6.722;2024-02-21T14:08:53;9.40;99.90
52895;DHT22;38759;53.396;6.722;2024-02-21T14:11:18;9.40;99.90
52895;DHT22;38759;53.396;6.722;2024-02-21T14:13:44;9.30;99.90
52895;DHT22;38759;53.396;6.722;2024-02-21T14:16:11;9.50;99.90
52895;DHT22;38759;53.396;6.722;2024-02-21T14:18:40;9.30;99.90
52895;DHT22;38759;53.396;6.722;2024-02-21T14:21:10;9.30;99.90
52895;DHT22;38759;53.396;6.722;2024-02-21T14:23:38;9.50;99.90
52895;DHT22;38759;53.396;6.722;2024-02-21T14:26:05;9.30;99.90
52895;DHT22;38759;53.396;6.722;2024-02-21T14:28:32;9.30;99.90
52895;DHT22;38759;53.396;6.722;2024-02-21T14:30:59;9.20;99.90
52895;DHT22;38759;53.396;6.722;2024-02-21T14:33:29;9.30;99.90
52895;DHT22;38759;53.396;6.722;2024-02-21T14:35:56;9.40;99.90
52895;DHT22;38759;53.396;6.722;2024-02-21T14:38:22;9.30;99.90
52895;DHT22;38759;53.396;6.722;2024-02-21T14:40:48;9.20;99.90
52895;DHT22;38759;53.396;6.722;2024-02-21T14:43:14;9.30;99.90
52895;DHT22;38759;53.396;6.722;2024-02-21T14:45:40;9.30;99.90
52895;DHT22;38759;53.396;6.722;2024-02-21T14:48:06;9.20;99.90
52895;DHT22;38759;53.396;6.722;2024-02-21T14:50:33;9.10;99.90
52895;DHT22;38759;53.396;6.722;2024-02-21T14:52:59;9.10;99.90
52895;DHT22;38759;53.396;6.722;2024-02-21T14:55:24;9.10;99.90
52895;DHT22;38759;53.396;6.722;2024-02-21T14:57:50;9.10;99.90
52895;DHT22;38759;53.396;6.722;2024-02-21T15:00:16;9.10;99.90
52895;DHT22;38759;53.396;6.722;2024-02-21T15:02:42;9.00;99.90
52895;DHT22;38759;53.396;6.722;2024-02-21T15:05:09;9.10;99.90
52895;DHT22;38759;53.396;6.722;2024-02-21T15:07:35;9.00;99.90
52895;DHT22;38759;53.396;6.722;2024-02-21T15:10:02;9.20;99.90
52895;DHT22;38759;53.396;6.722;2024-02-21T15:12:28;9.00;99.90
52895;DHT22;38759;53.396;6.722;2024-02-21T15:14:54;9.00;99.90
52895;DHT22;38759;53.396;6.722;2024-02-21T15:17:19;9.00;99.90
52895;DHT22;38759;53.396;6.722;2024-02-21T15:19:45;9.00;99.90
52895;DHT22;38759;53.396;6.722;2024-02-21T15:22:11;8.90;99.90
52895;DHT22;38759;53.396;6.722;2024-02-21T15:24:38;8.90;99.90
52895;DHT22;38759;53.396;6.722;2024-02-21T15:27:04;9.00;99.90
52895;DHT22;38759;53.396;6.722;2024-02-21T15:29:30;8.90;99.90
52895;DHT22;38759;53.396;6.722;2024-02-21T15:31:55;9.10;99.90
52895;DHT22;38759;53.396;6.722;2024-02-21T15:34:21;8.90;99.90
52895;DHT22;38759;53.396;6.722;2024-02-21T15:36:47;8.90;99.90
52895;DHT22;38759;53.396;6.722;2024-02-21T15:39:13;8.90;99.90
52895;DHT22;38759;53.396;6.722;2024-02-21T15:41:39;8.80;99.90